createdAt,value
2017-07-08T00:00:04.512Z,0
2017-07-08T00:01:04.191Z,0
2017-07-08T00:02:04.783Z,0
2017-07-08T00:03:04.783Z,0
2017-07-08T00:04:04.743Z,0
2017-07-08T00:05:04.730Z,0
2017-07-08T00:06:04.706Z,0
2017-07-08T00:07:04.681Z,0
2017-07-08T00:08:04.370Z,0
2017-07-08T00:09:04.646Z,0
2017-07-08T00:10:04.942Z,0
2017-07-08T00:11:04.314Z,0
2017-07-08T00:12:04.294Z,0
2017-07-08T00:13:04.577Z,0
2017-07-08T00:14:04.563Z,0
2017-07-08T00:15:04.849Z,0
2017-07-08T00:16:04.837Z,0
2017-07-08T00:17:04.824Z,0
2017-07-08T00:18:04.489Z,0
2017-07-08T00:19:04.784Z,0
2017-07-08T00:20:04.456Z,0
2017-07-08T00:21:04.437Z,0
2017-07-08T00:22:04.110Z,0
2017-07-08T00:23:04.694Z,0
2017-07-08T00:24:04.377Z,0
2017-07-08T00:25:04.669Z,0
2017-07-08T00:26:04.346Z,0
2017-07-08T00:27:04.335Z,0
2017-07-08T00:28:04.306Z,0
2017-07-08T00:29:04.296Z,0
2017-07-08T00:30:04.276Z,0
2017-07-08T00:31:03.946Z,0
2017-07-08T00:32:04.238Z,0
2017-07-08T00:33:04.524Z,0
2017-07-08T00:34:04.501Z,0
2017-07-08T00:35:04.489Z,0
2017-07-08T00:36:04.470Z,0
2017-07-08T00:37:04.465Z,0
2017-07-08T00:38:04.431Z,0
2017-07-08T00:39:04.106Z,0
2017-07-08T00:40:04.393Z,0
2017-07-08T00:41:03.761Z,0
2017-07-08T00:42:04.357Z,0
2017-07-08T00:43:04.339Z,0
2017-07-08T00:44:04.319Z,0
2017-07-08T00:45:03.997Z,0
2017-07-08T00:46:03.367Z,0
2017-07-08T00:47:03.960Z,0
2017-07-08T00:48:03.941Z,0
2017-07-08T00:49:03.924Z,0
2017-07-08T00:50:03.905Z,0
2017-07-08T00:51:04.187Z,0
2017-07-08T00:52:03.863Z,0
2017-07-08T00:53:03.849Z,0
2017-07-08T00:54:03.522Z,0
2017-07-08T00:55:04.115Z,0
2017-07-08T00:56:04.098Z,0
2017-07-08T00:57:03.772Z,0
2017-07-08T00:58:04.064Z,0
2017-07-08T00:59:03.731Z,0
2017-07-08T01:00:04.020Z,0
2017-07-08T01:01:04.002Z,0
2017-07-08T01:02:03.988Z,0
2017-07-08T01:03:03.665Z,0
2017-07-08T01:04:03.950Z,0
2017-07-08T01:05:03.626Z,0
2017-07-08T01:06:03.922Z,0
2017-07-08T01:07:03.895Z,0
2017-07-08T01:08:03.886Z,0
2017-07-08T01:09:03.553Z,0
2017-07-08T01:10:03.535Z,0
2017-07-08T01:11:03.517Z,0
2017-07-08T01:12:03.496Z,0
2017-07-08T01:13:03.785Z,0
2017-07-08T01:14:03.768Z,0
2017-07-08T01:15:03.746Z,0
2017-07-08T01:16:03.427Z,0
2017-07-08T01:17:03.406Z,0
2017-07-08T01:18:03.392Z,0
2017-07-08T01:19:03.075Z,0
2017-07-08T01:20:03.355Z,0
2017-07-08T01:21:03.642Z,0
2017-07-08T01:22:03.620Z,0
2017-07-08T01:23:02.687Z,0
2017-07-08T01:24:03.279Z,0
2017-07-08T01:25:03.565Z,0
2017-07-08T01:26:03.543Z,0
2017-07-08T01:27:03.535Z,0
2017-07-08T01:28:03.508Z,0
2017-07-08T01:29:03.192Z,0
2017-07-08T01:30:03.468Z,0
2017-07-08T01:31:03.456Z,0
2017-07-08T01:32:03.439Z,0
2017-07-08T01:33:03.415Z,0
2017-07-08T01:34:03.402Z,0
2017-07-08T01:35:03.385Z,0
2017-07-08T01:36:03.058Z,0
2017-07-08T01:37:03.343Z,0
2017-07-08T01:38:03.331Z,0
2017-07-08T01:39:03.007Z,0
2017-07-08T01:40:02.988Z,0
2017-07-08T01:41:03.273Z,0
2017-07-08T01:42:02.948Z,0
2017-07-08T01:43:03.238Z,0
2017-07-08T01:44:02.915Z,0
2017-07-08T01:45:02.591Z,0
2017-07-08T01:46:03.186Z,0
2017-07-08T01:47:02.554Z,0
2017-07-08T01:48:03.143Z,0
2017-07-08T01:49:03.193Z,0
2017-07-08T01:50:03.108Z,0
2017-07-08T01:51:03.096Z,0
2017-07-08T01:52:03.075Z,0
2017-07-08T01:53:03.052Z,0
2017-07-08T01:54:02.727Z,0
2017-07-08T01:55:02.712Z,0
2017-07-08T01:56:02.997Z,0
2017-07-08T01:57:02.979Z,0
2017-07-08T01:58:03.023Z,0
2017-07-08T01:59:02.633Z,0
2017-07-08T02:00:02.926Z,0
2017-07-08T02:01:02.603Z,0
2017-07-08T02:02:02.580Z,0
2017-07-08T02:03:02.558Z,0
2017-07-08T02:04:02.544Z,0
2017-07-08T02:05:02.832Z,0
2017-07-08T02:06:02.207Z,0
2017-07-08T02:07:02.490Z,0
2017-07-08T02:08:01.855Z,0
2017-07-08T02:09:01.837Z,0
2017-07-08T02:10:02.427Z,0
2017-07-08T02:11:02.712Z,0
2017-07-08T02:12:02.386Z,0
2017-07-08T02:13:02.680Z,0
2017-07-08T02:14:02.354Z,0
2017-07-08T02:15:02.337Z,0
2017-07-08T02:16:02.327Z,0
2017-07-08T02:17:02.308Z,0
2017-07-08T02:18:01.669Z,0
2017-07-08T02:19:02.574Z,0
2017-07-08T02:20:02.556Z,0
2017-07-08T02:21:02.229Z,0
2017-07-08T02:22:01.916Z,0
2017-07-08T02:23:01.272Z,0
2017-07-08T02:24:02.512Z,0
2017-07-08T02:25:02.457Z,0
2017-07-08T02:26:02.432Z,0
2017-07-08T02:27:02.414Z,0
2017-07-08T02:28:02.403Z,0
2017-07-08T02:29:02.382Z,0
2017-07-08T02:30:02.359Z,0
2017-07-08T02:31:02.351Z,0
2017-07-08T02:32:01.726Z,0
2017-07-08T02:33:01.699Z,0
2017-07-08T02:34:02.295Z,0
2017-07-08T02:35:02.279Z,0
2017-07-08T02:36:02.251Z,0
2017-07-08T02:37:01.923Z,0
2017-07-08T02:38:02.212Z,0
2017-07-08T02:39:02.245Z,0
2017-07-08T02:40:02.172Z,0
2017-07-08T02:41:02.156Z,0
2017-07-08T02:42:02.142Z,0
2017-07-08T02:43:02.120Z,0
2017-07-08T02:44:01.796Z,0
2017-07-08T02:45:02.076Z,0
2017-07-08T02:46:02.060Z,0
2017-07-08T02:47:02.039Z,0
2017-07-08T02:48:02.025Z,0
2017-07-08T02:49:02.007Z,0
2017-07-08T02:50:01.988Z,0
2017-07-08T02:51:01.974Z,0
2017-07-08T02:52:01.945Z,0
2017-07-08T02:53:01.627Z,0
2017-07-08T02:54:01.606Z,0
2017-07-08T02:55:01.581Z,0
2017-07-08T02:56:01.568Z,0
2017-07-08T02:57:01.852Z,0
2017-07-08T02:58:01.523Z,0
2017-07-08T02:59:01.811Z,0
2017-07-08T03:00:01.794Z,0
2017-07-08T03:01:01.771Z,0
2017-07-08T03:02:01.452Z,0
2017-07-08T03:03:00.821Z,0
2017-07-08T03:04:01.716Z,0
2017-07-08T03:05:01.402Z,0
2017-07-08T03:06:01.376Z,0
2017-07-08T03:07:01.667Z,0
2017-07-08T03:08:01.646Z,0
2017-07-08T03:09:01.317Z,5
2017-07-08T03:10:01.699Z,5
2017-07-08T03:11:01.587Z,5
2017-07-08T03:12:01.257Z,5
2017-07-08T03:13:01.544Z,5
2017-07-08T03:14:00.922Z,5
2017-07-08T03:15:01.506Z,5
2017-07-08T03:16:00.578Z,10
2017-07-08T03:17:01.480Z,10
2017-07-08T03:18:01.460Z,10
2017-07-08T03:19:01.434Z,10
2017-07-08T03:20:01.422Z,10
2017-07-08T03:21:01.398Z,10
2017-07-08T03:22:00.768Z,10
2017-07-08T03:23:00.449Z,15
2017-07-08T03:24:00.730Z,15
2017-07-08T03:25:01.020Z,15
2017-07-08T03:26:01.308Z,15
2017-07-08T03:27:01.285Z,20
2017-07-08T03:28:01.268Z,20
2017-07-08T03:29:00.947Z,20
2017-07-08T03:30:01.243Z,20
2017-07-08T03:31:01.215Z,25
2017-07-08T03:32:01.189Z,25
2017-07-08T03:33:00.875Z,25
2017-07-08T03:34:01.153Z,30
2017-07-08T03:35:00.834Z,30
2017-07-08T03:36:01.116Z,30
2017-07-08T03:37:00.181Z,35
2017-07-08T03:38:01.084Z,35
2017-07-08T03:39:01.063Z,35
2017-07-08T03:40:01.129Z,40
2017-07-08T03:41:01.022Z,40
2017-07-08T03:42:00.694Z,40
2017-07-08T03:43:00.684Z,45
2017-07-08T03:44:00.964Z,45
2017-07-08T03:45:00.946Z,50
2017-07-08T03:46:00.924Z,50
2017-07-08T03:47:00.604Z,55
2017-07-08T03:48:00.907Z,55
2017-07-08T03:49:00.884Z,60
2017-07-08T03:50:00.855Z,60
2017-07-08T03:51:00.837Z,60
2017-07-08T03:52:00.200Z,65
2017-07-08T03:53:00.800Z,65
2017-07-08T03:54:00.478Z,70
2017-07-08T03:55:00.752Z,70
2017-07-08T03:56:00.745Z,75
2017-07-08T03:57:00.721Z,75
2017-07-08T03:57:59.786Z,80
2017-07-08T03:59:00.685Z,85
2017-07-08T04:00:00.358Z,85
2017-07-08T04:01:00.337Z,90
2017-07-08T04:02:00.624Z,95
2017-07-08T04:03:00.303Z,95
2017-07-08T04:04:00.591Z,95
2017-07-08T04:05:00.574Z,100
2017-07-08T04:06:00.254Z,100
2017-07-08T04:07:00.529Z,105
2017-07-08T04:08:00.512Z,105
2017-07-08T04:09:00.494Z,115
2017-07-08T04:10:00.170Z,125
2017-07-08T04:11:00.154Z,135
2017-07-08T04:12:00.435Z,135
2017-07-08T04:12:59.810Z,135
2017-07-08T04:14:00.102Z,135
2017-07-08T04:15:00.073Z,140
2017-07-08T04:16:00.067Z,140
2017-07-08T04:17:00.349Z,140
2017-07-08T04:17:59.412Z,145
2017-07-08T04:18:59.997Z,150
2017-07-08T04:20:00.296Z,155
2017-07-08T04:21:00.269Z,165
2017-07-08T04:21:59.641Z,170
2017-07-08T04:22:59.925Z,180
2017-07-08T04:23:59.297Z,200
2017-07-08T04:24:59.892Z,215
2017-07-08T04:25:59.572Z,220
2017-07-08T04:26:59.550Z,230
2017-07-08T04:28:00.145Z,230
2017-07-08T04:28:59.819Z,215
2017-07-08T04:29:59.496Z,215
2017-07-08T04:31:00.083Z,220
2017-07-08T04:32:00.325Z,220
2017-07-08T04:32:59.742Z,225
2017-07-08T04:33:59.420Z,230
2017-07-08T04:34:59.708Z,225
2017-07-08T04:35:59.692Z,220
2017-07-08T04:36:59.976Z,220
2017-07-08T04:37:59.971Z,220
2017-07-08T04:38:59.644Z,240
2017-07-08T04:39:59.928Z,260
2017-07-08T04:40:59.904Z,270
2017-07-08T04:41:59.586Z,275
2017-07-08T04:42:59.865Z,285
2017-07-08T04:43:59.537Z,290
2017-07-08T04:44:59.219Z,315
2017-07-08T04:45:59.818Z,350
2017-07-08T04:46:59.794Z,385
2017-07-08T04:47:59.476Z,425
2017-07-08T04:48:59.761Z,450
2017-07-08T04:49:59.448Z,450
2017-07-08T04:50:59.416Z,455
2017-07-08T04:51:59.402Z,445
2017-07-08T04:52:59.703Z,440
2017-07-08T04:53:59.670Z,430
2017-07-08T04:54:59.350Z,410
2017-07-08T04:55:59.639Z,390
2017-07-08T04:56:59.657Z,365
2017-07-08T04:57:59.299Z,340
2017-07-08T04:58:59.276Z,320
2017-07-08T04:59:59.569Z,305
2017-07-08T05:00:59.557Z,280
2017-07-08T05:01:59.227Z,250
2017-07-08T05:02:59.516Z,230
2017-07-08T05:03:58.886Z,210
2017-07-08T05:04:58.564Z,200
2017-07-08T05:05:59.159Z,195
2017-07-08T05:06:58.227Z,190
2017-07-08T05:07:58.817Z,195
2017-07-08T05:08:58.193Z,195
2017-07-08T05:09:59.094Z,205
2017-07-08T05:10:59.067Z,210
2017-07-08T05:11:59.056Z,215
2017-07-08T05:12:59.046Z,220
2017-07-08T05:13:59.026Z,220
2017-07-08T05:14:58.699Z,225
2017-07-08T05:15:59.299Z,230
2017-07-08T05:16:58.664Z,225
2017-07-08T05:17:58.977Z,225
2017-07-08T05:18:58.934Z,235
2017-07-08T05:19:59.226Z,250
2017-07-08T05:20:59.197Z,260
2017-07-08T05:21:58.876Z,265
2017-07-08T05:22:58.554Z,280
2017-07-08T05:23:58.534Z,290
2017-07-08T05:24:58.217Z,300
2017-07-08T05:25:59.174Z,305
2017-07-08T05:26:58.489Z,310
2017-07-08T05:27:59.073Z,315
2017-07-08T05:28:59.064Z,320
2017-07-08T05:29:59.043Z,330
2017-07-08T05:30:58.717Z,345
2017-07-08T05:31:58.696Z,360
2017-07-08T05:32:58.682Z,375
2017-07-08T05:33:58.669Z,385
2017-07-08T05:34:58.648Z,380
2017-07-08T05:35:58.948Z,370
2017-07-08T05:36:58.308Z,375
2017-07-08T05:37:58.596Z,380
2017-07-08T05:38:58.878Z,385
2017-07-08T05:39:58.260Z,395
2017-07-08T05:40:58.541Z,400
2017-07-08T05:41:58.832Z,400
2017-07-08T05:42:58.810Z,390
2017-07-08T05:43:58.493Z,380
2017-07-08T05:44:58.787Z,385
2017-07-08T05:45:58.766Z,390
2017-07-08T05:46:58.436Z,400
2017-07-08T05:47:58.725Z,405
2017-07-08T05:48:58.404Z,405
2017-07-08T05:49:58.390Z,395
2017-07-08T05:50:58.370Z,390
2017-07-08T05:51:58.662Z,390
2017-07-08T05:52:58.329Z,395
2017-07-08T05:53:58.009Z,400
2017-07-08T05:54:58.305Z,420
2017-07-08T05:55:58.214Z,450
2017-07-08T05:56:57.966Z,495
2017-07-08T05:57:58.859Z,545
2017-07-08T05:58:58.245Z,570
2017-07-08T05:59:58.529Z,585
2017-07-08T06:00:58.194Z,600
2017-07-08T06:01:58.188Z,595
2017-07-08T06:02:58.165Z,580
2017-07-08T06:03:58.152Z,555
2017-07-08T06:04:58.440Z,525
2017-07-08T06:05:58.115Z,500
2017-07-08T06:06:58.098Z,485
2017-07-08T06:07:58.087Z,480
2017-07-08T06:08:58.068Z,480
2017-07-08T06:09:58.429Z,480
2017-07-08T06:10:57.732Z,485
2017-07-08T06:11:58.018Z,485
2017-07-08T06:12:58.379Z,490
2017-07-08T06:13:57.685Z,505
2017-07-08T06:14:57.973Z,520
2017-07-08T06:15:57.962Z,525
2017-07-08T06:16:57.944Z,520
2017-07-08T06:17:58.232Z,520
2017-07-08T06:18:57.611Z,520
2017-07-08T06:19:57.891Z,535
2017-07-08T06:20:57.889Z,550
2017-07-08T06:21:57.560Z,560
2017-07-08T06:22:57.541Z,575
2017-07-08T06:23:57.223Z,575
2017-07-08T06:24:58.128Z,575
2017-07-08T06:25:57.191Z,555
2017-07-08T06:26:57.792Z,545
2017-07-08T06:27:57.772Z,530
2017-07-08T06:28:58.063Z,510
2017-07-08T06:29:58.081Z,485
2017-07-08T06:30:57.726Z,475
2017-07-08T06:31:57.713Z,500
2017-07-08T06:32:57.695Z,535
2017-07-08T06:33:57.373Z,555
2017-07-08T06:34:57.358Z,565
2017-07-08T06:35:57.658Z,570
2017-07-08T06:36:57.937Z,585
2017-07-08T06:37:57.312Z,605
2017-07-08T06:38:57.605Z,630
2017-07-08T06:39:57.892Z,665
2017-07-08T06:40:57.879Z,705
2017-07-08T06:41:57.860Z,745
2017-07-08T06:42:57.844Z,800
2017-07-08T06:43:57.240Z,880
2017-07-08T06:44:57.817Z,880
2017-07-08T06:45:57.806Z,875
2017-07-08T06:46:57.483Z,910
2017-07-08T06:47:57.471Z,925
2017-07-08T06:48:57.456Z,895
2017-07-08T06:49:57.439Z,890
2017-07-08T06:50:57.120Z,850
2017-07-08T06:51:57.408Z,805
2017-07-08T06:52:57.395Z,855
2017-07-08T06:53:57.078Z,820
2017-07-08T06:54:57.678Z,775
2017-07-08T06:55:57.358Z,745
2017-07-08T06:56:57.354Z,730
2017-07-08T06:57:57.330Z,715
2017-07-08T06:58:57.018Z,685
2017-07-08T06:59:57.306Z,670
2017-07-08T07:00:57.295Z,670
2017-07-08T07:01:57.278Z,680
2017-07-08T07:02:57.263Z,710
2017-07-08T07:03:56.643Z,725
2017-07-08T07:04:57.236Z,730
2017-07-08T07:05:57.224Z,730
2017-07-08T07:06:57.215Z,730
2017-07-08T07:07:57.507Z,735
2017-07-08T07:08:57.197Z,755
2017-07-08T07:09:57.492Z,760
2017-07-08T07:10:57.465Z,785
2017-07-08T07:11:57.147Z,805
2017-07-08T07:12:57.436Z,820
2017-07-08T07:13:57.118Z,835
2017-07-08T07:14:57.103Z,865
2017-07-08T07:15:57.099Z,845
2017-07-08T07:16:57.382Z,820
2017-07-08T07:17:57.071Z,805
2017-07-08T07:18:57.362Z,815
2017-07-08T07:19:57.041Z,765
2017-07-08T07:20:57.031Z,755
2017-07-08T07:21:57.028Z,765
2017-07-08T07:22:56.699Z,775
2017-07-08T07:23:56.743Z,790
2017-07-08T07:24:56.673Z,810
2017-07-08T07:25:56.664Z,825
2017-07-08T07:26:57.320Z,825
2017-07-08T07:27:56.940Z,815
2017-07-08T07:28:57.231Z,830
2017-07-08T07:29:57.234Z,840
2017-07-08T07:30:57.206Z,850
2017-07-08T07:31:57.208Z,865
2017-07-08T07:32:55.965Z,890
2017-07-08T07:33:57.178Z,925
2017-07-08T07:34:56.548Z,920
2017-07-08T07:35:56.844Z,935
2017-07-08T07:36:56.829Z,960
2017-07-08T07:37:57.115Z,985
2017-07-08T07:38:57.110Z,1010
2017-07-08T07:39:56.796Z,1080
2017-07-08T07:40:57.084Z,1210
2017-07-08T07:41:57.073Z,1280
2017-07-08T07:42:56.783Z,1295
2017-07-08T07:43:57.051Z,1470
2017-07-08T07:44:57.037Z,1845
2017-07-08T07:45:56.713Z,1280
2017-07-08T07:46:57.012Z,1625
2017-07-08T07:47:56.999Z,2100
2017-07-08T07:48:56.994Z,2410
2017-07-08T07:49:56.688Z,1825
2017-07-08T07:50:56.353Z,1875
2017-07-08T07:51:56.660Z,1530
2017-07-08T07:52:56.934Z,1200
2017-07-08T07:53:56.319Z,1185
2017-07-08T07:54:56.614Z,1165
2017-07-08T07:55:57.165Z,1100
2017-07-08T07:56:56.896Z,1065
2017-07-08T07:57:56.281Z,1050
2017-07-08T07:58:56.567Z,1040
2017-07-08T07:59:56.556Z,1045
2017-07-08T08:00:56.549Z,1055
2017-07-08T08:01:56.853Z,1075
2017-07-08T08:02:56.534Z,1095
2017-07-08T08:03:56.522Z,1115
2017-07-08T08:04:56.816Z,1140
2017-07-08T08:05:56.493Z,1135
2017-07-08T08:06:56.485Z,1125
2017-07-08T08:07:56.781Z,1100
2017-07-08T08:08:56.834Z,1080
2017-07-08T08:09:56.465Z,1085
2017-07-08T08:10:56.265Z,1125
2017-07-08T08:11:56.435Z,1175
2017-07-08T08:12:56.726Z,1235
2017-07-08T08:13:56.713Z,1285
2017-07-08T08:14:56.705Z,1255
2017-07-08T08:15:56.690Z,1355
2017-07-08T08:16:56.682Z,1280
2017-07-08T08:17:56.669Z,1310
2017-07-08T08:18:56.353Z,1390
2017-07-08T08:19:56.043Z,1470
2017-07-08T08:20:56.338Z,1695
2017-07-08T08:21:55.715Z,1435
2017-07-08T08:22:56.009Z,1390
2017-07-08T08:23:55.388Z,1370
2017-07-08T08:24:56.605Z,1355
2017-07-08T08:25:55.977Z,1360
2017-07-08T08:26:56.580Z,1250
2017-07-08T08:27:56.564Z,1225
2017-07-08T08:28:55.954Z,1200
2017-07-08T08:29:56.547Z,1185
2017-07-08T08:30:56.547Z,1205
2017-07-08T08:31:56.275Z,1205
2017-07-08T08:32:55.296Z,1215
2017-07-08T08:33:56.510Z,1240
2017-07-08T08:34:56.496Z,1255
2017-07-08T08:35:56.486Z,1240
2017-07-08T08:36:56.173Z,1230
2017-07-08T08:37:56.463Z,1220
2017-07-08T08:38:55.550Z,1220
2017-07-08T08:39:56.461Z,1255
2017-07-08T08:40:56.432Z,1330
2017-07-08T08:41:56.426Z,1405
2017-07-08T08:42:56.418Z,1590
2017-07-08T08:43:56.091Z,1685
2017-07-08T08:44:56.391Z,1945
2017-07-08T08:45:56.072Z,1360
2017-07-08T08:46:56.369Z,1235
2017-07-08T08:47:56.357Z,1180
2017-07-08T08:48:56.352Z,1055
2017-07-08T08:49:56.037Z,1055
2017-07-08T08:50:56.332Z,1085
2017-07-08T08:51:56.040Z,1105
2017-07-08T08:52:56.304Z,1115
2017-07-08T08:53:55.998Z,1125
2017-07-08T08:54:56.284Z,1095
2017-07-08T08:55:55.970Z,1115
2017-07-08T08:56:56.262Z,1140
2017-07-08T08:57:56.254Z,1175
2017-07-08T08:58:55.941Z,1225
2017-07-08T08:59:55.926Z,1295
2017-07-08T09:00:56.220Z,1940
2017-07-08T09:01:55.910Z,1360
2017-07-08T09:02:56.211Z,1595
2017-07-08T09:03:56.201Z,1430
2017-07-08T09:04:56.186Z,1395
2017-07-08T09:05:55.868Z,1295
2017-07-08T09:06:56.168Z,1570
2017-07-08T09:07:56.150Z,1140
2017-07-08T09:08:56.138Z,1070
2017-07-08T09:09:56.131Z,1055
2017-07-08T09:10:56.121Z,1195
2017-07-08T09:11:56.127Z,2515
2017-07-08T09:12:56.113Z,2685
2017-07-08T09:13:55.788Z,3230
2017-07-08T09:14:55.780Z,3305
2017-07-08T09:15:56.084Z,1980
2017-07-08T09:16:56.070Z,1600
2017-07-08T09:17:55.756Z,2980
2017-07-08T09:18:55.748Z,1840
2017-07-08T09:19:55.738Z,1495
2017-07-08T09:20:55.734Z,1505
2017-07-08T09:21:55.719Z,1660
2017-07-08T09:22:55.409Z,1840
2017-07-08T09:23:55.711Z,1660
2017-07-08T09:24:55.701Z,1400
2017-07-08T09:25:55.081Z,1915
2017-07-08T09:26:56.062Z,1675
2017-07-08T09:27:55.683Z,2395
2017-07-08T09:28:55.973Z,2810
2017-07-08T09:29:55.665Z,2470
2017-07-08T09:30:55.659Z,2090
2017-07-08T09:31:55.648Z,2050
2017-07-08T09:32:55.639Z,2150
2017-07-08T09:33:55.638Z,1715
2017-07-08T09:34:55.639Z,2060
2017-07-08T09:35:55.629Z,1725
2017-07-08T09:36:55.925Z,1975
2017-07-08T09:37:55.626Z,1705
2017-07-08T09:38:55.604Z,1910
2017-07-08T09:39:55.593Z,1855
2017-07-08T09:40:55.593Z,1670
2017-07-08T09:41:55.596Z,1705
2017-07-08T09:42:55.585Z,1475
2017-07-08T09:43:55.572Z,1300
2017-07-08T09:44:55.570Z,1420
2017-07-08T09:45:55.564Z,1505
2017-07-08T09:46:55.861Z,1580
2017-07-08T09:47:55.542Z,2070
2017-07-08T09:48:55.536Z,2400
2017-07-08T09:49:55.534Z,2280
2017-07-08T09:50:55.225Z,2670
2017-07-08T09:51:55.519Z,2800
2017-07-08T09:52:55.522Z,2400
2017-07-08T09:53:55.811Z,1795
2017-07-08T09:54:55.513Z,2525
2017-07-08T09:55:55.802Z,2290
2017-07-08T09:56:55.489Z,2975
2017-07-08T09:57:55.781Z,2270
2017-07-08T09:58:55.778Z,2730
2017-07-08T09:59:55.778Z,2710
2017-07-08T10:00:55.466Z,2565
2017-07-08T10:01:55.763Z,2225
2017-07-08T10:02:55.147Z,2635
2017-07-08T10:03:55.445Z,1580
2017-07-08T10:04:55.743Z,1410
2017-07-08T10:05:55.743Z,2470
2017-07-08T10:06:55.747Z,2485
2017-07-08T10:07:55.743Z,2425
2017-07-08T10:08:55.426Z,2525
2017-07-08T10:09:55.115Z,1940
2017-07-08T10:10:55.110Z,2110
2017-07-08T10:11:54.803Z,2415
2017-07-08T10:12:56.354Z,2805
2017-07-08T10:13:55.529Z,2905
2017-07-08T10:14:55.405Z,2740
2017-07-08T10:15:55.391Z,2750
2017-07-08T10:16:55.084Z,2785
2017-07-08T10:17:55.385Z,2820
2017-07-08T10:18:55.384Z,2735
2017-07-08T10:19:55.375Z,2775
2017-07-08T10:20:55.678Z,2490
2017-07-08T10:21:55.365Z,2210
2017-07-08T10:22:55.357Z,2285
2017-07-08T10:23:55.053Z,1220
2017-07-08T10:24:55.359Z,1595
2017-07-08T10:25:55.348Z,1380
2017-07-08T10:26:55.655Z,2110
2017-07-08T10:27:55.344Z,2090
2017-07-08T10:28:55.643Z,2560
2017-07-08T10:29:55.332Z,1785
2017-07-08T10:30:55.715Z,1620
2017-07-08T10:31:55.321Z,1510
2017-07-08T10:32:55.627Z,1575
2017-07-08T10:33:55.620Z,1615
2017-07-08T10:34:55.306Z,1635
2017-07-08T10:35:54.998Z,2030
2017-07-08T10:36:54.994Z,2015
2017-07-08T10:37:55.597Z,1715
2017-07-08T10:38:54.976Z,1510
2017-07-08T10:39:55.282Z,1465
2017-07-08T10:40:54.972Z,1455
2017-07-08T10:41:54.960Z,1610
2017-07-08T10:42:54.954Z,1785
2017-07-08T10:43:55.559Z,1830
2017-07-08T10:44:55.244Z,1945
2017-07-08T10:45:55.543Z,2020
2017-07-08T10:46:55.232Z,1910
2017-07-08T10:47:55.525Z,1880
2017-07-08T10:48:55.218Z,1595
2017-07-08T10:49:55.522Z,1990
2017-07-08T10:50:55.506Z,1735
2017-07-08T10:51:55.193Z,2120
2017-07-08T10:52:55.190Z,2120
2017-07-08T10:53:55.186Z,2040
2017-07-08T10:54:55.483Z,1635
2017-07-08T10:55:55.475Z,1590
2017-07-08T10:56:55.172Z,2355
2017-07-08T10:57:54.850Z,2235
2017-07-08T10:58:55.157Z,1840
2017-07-08T10:59:55.507Z,2315
2017-07-08T11:00:55.440Z,2050
2017-07-08T11:01:55.129Z,1470
2017-07-08T11:02:54.819Z,1385
2017-07-08T11:03:55.118Z,1390
2017-07-08T11:04:54.504Z,1475
2017-07-08T11:05:55.414Z,1690
2017-07-08T11:06:55.018Z,1720
2017-07-08T11:07:55.100Z,1625
2017-07-08T11:08:55.109Z,1845
2017-07-08T11:09:55.321Z,1790
2017-07-08T11:10:55.394Z,1695
2017-07-08T11:11:55.080Z,2315
2017-07-08T11:12:55.366Z,2930
2017-07-08T11:13:55.658Z,1780
2017-07-08T11:14:55.352Z,2520
2017-07-08T11:15:55.444Z,2865
2017-07-08T11:16:55.691Z,2840
2017-07-08T11:17:54.884Z,2565
2017-07-08T11:18:54.712Z,2110
2017-07-08T11:19:55.313Z,2120
2017-07-08T11:20:55.009Z,2025
2017-07-08T11:21:55.307Z,2470
2017-07-08T11:22:54.688Z,2435
2017-07-08T11:23:55.029Z,2795
2017-07-08T11:24:54.981Z,2520
2017-07-08T11:25:55.285Z,2360
2017-07-08T11:26:54.978Z,2735
2017-07-08T11:27:54.665Z,2980
2017-07-08T11:28:54.964Z,2520
2017-07-08T11:29:55.325Z,2555
2017-07-08T11:30:54.655Z,2545
2017-07-08T11:31:54.957Z,2080
2017-07-08T11:32:54.947Z,2085
2017-07-08T11:33:55.253Z,1995
2017-07-08T11:34:55.249Z,1360
2017-07-08T11:35:55.252Z,2250
2017-07-08T11:36:55.250Z,1775
2017-07-08T11:37:55.234Z,2060
2017-07-08T11:38:54.926Z,1840
2017-07-08T11:39:55.228Z,2380
2017-07-08T11:40:55.229Z,2535
2017-07-08T11:41:55.220Z,2970
2017-07-08T11:42:54.604Z,3105
2017-07-08T11:43:55.214Z,2965
2017-07-08T11:44:54.287Z,2915
2017-07-08T11:45:53.984Z,2855
2017-07-08T11:46:54.281Z,1565
2017-07-08T11:47:54.889Z,3080
2017-07-08T11:48:54.879Z,3085
2017-07-08T11:49:54.878Z,2945
2017-07-08T11:50:54.882Z,2975
2017-07-08T11:51:54.266Z,2985
2017-07-08T11:52:54.572Z,3215
2017-07-08T11:53:54.565Z,3140
2017-07-08T11:54:55.182Z,1685
2017-07-08T11:55:54.866Z,1420
2017-07-08T11:56:54.869Z,1295
2017-07-08T11:57:54.860Z,1130
2017-07-08T11:58:54.858Z,1090
2017-07-08T11:59:54.864Z,1085
2017-07-08T12:00:55.155Z,1050
2017-07-08T12:01:54.906Z,1065
2017-07-08T12:02:55.198Z,1050
2017-07-08T12:03:54.537Z,1045
2017-07-08T12:04:54.534Z,1045
2017-07-08T12:05:55.137Z,1095
2017-07-08T12:06:54.835Z,1545
2017-07-08T12:07:54.830Z,2850
2017-07-08T12:08:54.825Z,1595
2017-07-08T12:09:54.818Z,1500
2017-07-08T12:10:54.817Z,1430
2017-07-08T12:11:54.197Z,2860
2017-07-08T12:12:54.799Z,2780
2017-07-08T12:13:55.103Z,2870
2017-07-08T12:14:55.098Z,2865
2017-07-08T12:15:54.793Z,2770
2017-07-08T12:16:54.778Z,2730
2017-07-08T12:17:54.776Z,1415
2017-07-08T12:18:54.770Z,1295
2017-07-08T12:19:55.066Z,1280
2017-07-08T12:20:55.066Z,2510
2017-07-08T12:21:54.755Z,1255
2017-07-08T12:22:54.446Z,1620
2017-07-08T12:23:54.137Z,1675
2017-07-08T12:24:54.742Z,1255
2017-07-08T12:25:54.744Z,3065
2017-07-08T12:26:55.045Z,1405
2017-07-08T12:27:55.042Z,1415
2017-07-08T12:28:54.767Z,1350
2017-07-08T12:29:54.725Z,1270
2017-07-08T12:30:54.717Z,1270
2017-07-08T12:31:54.718Z,1745
2017-07-08T12:32:54.100Z,3065
2017-07-08T12:33:54.396Z,2655
2017-07-08T12:34:54.391Z,1895
2017-07-08T12:35:54.998Z,3255
2017-07-08T12:36:54.392Z,2780
2017-07-08T12:37:54.691Z,3230
2017-07-08T12:38:54.374Z,3505
2017-07-08T12:39:54.988Z,3050
2017-07-08T12:40:55.000Z,3495
2017-07-08T12:41:54.985Z,3535
2017-07-08T12:42:54.366Z,2065
2017-07-08T12:43:54.971Z,3165
2017-07-08T12:44:54.679Z,3140
2017-07-08T12:45:54.963Z,3345
2017-07-08T12:46:54.667Z,3245
2017-07-08T12:47:54.969Z,2520
2017-07-08T12:48:54.979Z,3285
2017-07-08T12:49:54.965Z,3180
2017-07-08T12:50:54.662Z,2825
2017-07-08T12:51:54.656Z,2855
2017-07-08T12:52:54.961Z,2110
2017-07-08T12:53:54.960Z,3135
2017-07-08T12:54:54.966Z,2840
2017-07-08T12:55:54.355Z,1000
2017-07-08T12:56:55.018Z,935
2017-07-08T12:57:54.997Z,935
2017-07-08T12:58:54.662Z,925
2017-07-08T12:59:54.649Z,905
2017-07-08T13:00:54.645Z,875
2017-07-08T13:01:54.642Z,800
2017-07-08T13:02:54.944Z,775
2017-07-08T13:03:54.933Z,785
2017-07-08T13:04:54.629Z,810
2017-07-08T13:05:54.628Z,865
2017-07-08T13:06:54.951Z,925
2017-07-08T13:07:54.616Z,945
2017-07-08T13:08:54.617Z,1055
2017-07-08T13:09:54.303Z,2245
2017-07-08T13:10:54.537Z,2435
2017-07-08T13:11:54.593Z,2980
2017-07-08T13:12:54.894Z,2960
2017-07-08T13:13:54.886Z,3235
2017-07-08T13:14:54.579Z,3355
2017-07-08T13:15:54.876Z,3285
2017-07-08T13:16:54.872Z,3390
2017-07-08T13:17:54.873Z,1645
2017-07-08T13:18:54.557Z,3280
2017-07-08T13:19:54.556Z,3580
2017-07-08T13:20:54.550Z,3295
2017-07-08T13:21:54.849Z,3335
2017-07-08T13:22:54.838Z,1490
2017-07-08T13:23:54.838Z,1380
2017-07-08T13:24:54.231Z,1280
2017-07-08T13:25:54.533Z,1205
2017-07-08T13:26:53.917Z,1125
2017-07-08T13:27:54.831Z,1095
2017-07-08T13:28:54.215Z,1055
2017-07-08T13:29:54.830Z,1015
2017-07-08T13:30:54.206Z,955
2017-07-08T13:31:54.813Z,955
2017-07-08T13:32:54.574Z,1275
2017-07-08T13:33:54.800Z,1300
2017-07-08T13:34:54.486Z,960
2017-07-08T13:35:54.500Z,955
2017-07-08T13:36:54.922Z,1015
2017-07-08T13:37:54.776Z,2395
2017-07-08T13:38:54.771Z,2415
2017-07-08T13:39:54.156Z,1890
2017-07-08T13:40:54.765Z,2315
2017-07-08T13:41:54.776Z,1945
2017-07-08T13:42:54.762Z,2440
2017-07-08T13:43:54.837Z,2315
2017-07-08T13:44:54.745Z,2695
2017-07-08T13:45:54.436Z,2775
2017-07-08T13:46:54.740Z,1575
2017-07-08T13:47:54.419Z,1205
2017-07-08T13:48:54.405Z,1115